Time;durP1;ratioP1;P1;durP2;ratioP2;P2;SDS_P1;SDS_P2;PMS_P1;PMS_P2;Temp;Humidity;BMP_temperature;BMP_pressure;BME280_temperature;BME280_humidity;BME280_pressure;Samples;Min_cycle;Max_cycle;Signal;HPM_P1;HPM_P2
2023/03/06 00:00:26;;;;;;;23.60;9.32;;;;;;;6.04;100.00;100460.69;4947182;28;20055;-79
2023/03/06 00:02:52;;;;;;;7.53;2.90;;;;;;;5.90;100.00;100463.25;4947675;28;20050;-80
2023/03/06 00:05:19;;;;;;;28.85;13.63;;;;;;;6.09;100.00;100461.16;4948460;28;20051;-80
2023/03/06 00:07:46;;;;;;;13.10;5.45;;;;;;;5.90;100.00;100455.03;4948818;28;20055;-79
2023/03/06 00:10:17;;;;;;;4.68;2.42;;;;;;;5.83;100.00;100446.66;4946864;28;20843;-80
2023/03/06 00:12:43;;;;;;;14.73;6.28;;;;;;;5.71;100.00;100444.94;4949942;28;20425;-79
2023/03/06 00:15:11;;;;;;;28.02;11.60;;;;;;;5.91;100.00;100443.66;4947391;28;20524;-78
2023/03/06 00:17:38;;;;;;;6.05;3.20;;;;;;;5.82;100.00;100442.34;4947559;28;20051;-78
2023/03/06 00:20:06;;;;;;;4.00;2.47;;;;;;;5.81;100.00;100440.75;4948262;28;20055;-78
2023/03/06 00:22:32;;;;;;;23.50;10.13;;;;;;;5.86;100.00;100440.44;4946712;28;20524;-77
2023/03/06 00:24:59;;;;;;;15.75;6.68;;;;;;;5.87;100.00;100442.03;4942047;28;20074;-77
2023/03/06 00:27:25;;;;;;;12.38;5.30;;;;;;;5.89;100.00;100435.00;4947325;28;20047;-81
2023/03/06 00:29:56;;;;;;;27.52;11.93;;;;;;;5.95;100.00;100438.22;4947926;28;20055;-80
2023/03/06 00:32:23;;;;;;;24.30;9.02;;;;;;;5.88;100.00;100433.44;4946490;28;20055;-79
2023/03/06 00:34:51;;;;;;;26.27;12.93;;;;;;;5.98;100.00;100426.47;4946626;28;20070;-79
2023/03/06 00:37:18;;;;;;;24.38;10.93;;;;;;;6.02;100.00;100421.81;4948418;28;20047;-80
2023/03/06 00:39:45;;;;;;;26.95;13.65;;;;;;;6.05;100.00;100421.88;4946978;28;20163;-82
2023/03/06 00:42:12;;;;;;;28.90;13.05;;;;;;;6.08;100.00;100417.59;4941223;28;20057;-80
2023/03/06 00:44:38;;;;;;;25.98;12.32;;;;;;;6.12;100.00;100404.69;4947325;28;20055;-78
2023/03/06 00:47:05;;;;;;;14.23;6.45;;;;;;;6.10;100.00;100412.50;4946740;28;20070;-81
2023/03/06 00:49:32;;;;;;;8.65;3.78;;;;;;;6.02;100.00;100410.84;4948423;28;20070;-76
2023/03/06 00:51:58;;;;;;;25.20;12.13;;;;;;;6.13;100.00;100401.56;4942196;28;20070;-77
2023/03/06 00:54:25;;;;;;;21.60;8.70;;;;;;;6.07;100.00;100397.56;4953388;28;20047;-78
2023/03/06 00:56:51;;;;;;;15.85;7.15;;;;;;;6.09;100.00;100399.94;4950711;28;20051;-78
2023/03/06 00:59:18;;;;;;;21.48;10.27;;;;;;;6.15;100.00;100402.00;4952919;28;20074;-77
2023/03/06 01:01:44;;;;;;;22.88;9.52;;;;;;;6.12;100.00;100401.94;4955928;28;20055;-80
2023/03/06 01:04:11;;;;;;;22.67;9.63;;;;;;;6.03;100.00;100388.50;4955447;28;20051;-79
2023/03/06 01:06:37;;;;;;;20.13;8.35;;;;;;;5.97;100.00;100389.97;4948084;28;20059;-79
2023/03/06 01:09:04;;;;;;;20.13;8.43;;;;;;;6.02;100.00;100386.91;4947368;28;20058;-79
2023/03/06 01:11:31;;;;;;;19.20;6.97;;;;;;;5.95;100.00;100383.28;4949191;28;20051;-79
2023/03/06 01:13:57;;;;;;;20.40;8.45;;;;;;;6.01;100.00;100374.31;4948313;28;20047;-78
2023/03/06 01:16:24;;;;;;;17.33;7.47;;;;;;;6.08;100.00;100379.13;4945835;28;20346;-80
2023/03/06 01:18:51;;;;;;;10.00;4.00;;;;;;;5.90;100.00;100378.91;4947260;28;20134;-77
2023/03/06 01:21:17;;;;;;;6.32;2.53;;;;;;;5.98;100.00;100371.56;4946680;28;20569;-82
2023/03/06 01:23:44;;;;;;;18.10;7.05;;;;;;;6.05;100.00;100372.44;4946757;28;20047;-78
2023/03/06 01:26:10;;;;;;;15.95;5.43;;;;;;;6.08;100.00;100370.88;4943226;28;20047;-78
2023/03/06 01:28:38;;;;;;;6.80;2.53;;;;;;;5.91;100.00;100371.47;4940257;28;20181;-79
2023/03/06 01:31:05;;;;;;;14.23;4.20;;;;;;;5.87;100.00;100370.66;4932225;29;20115;-80
2023/03/06 01:33:32;;;;;;;3.75;1.85;;;;;;;6.01;100.00;100362.56;4949941;28;20093;-80
2023/03/06 01:35:58;;;;;;;6.60;2.72;;;;;;;6.00;100.00;100364.53;4945721;28;20059;-78
2023/03/06 01:38:25;;;;;;;20.10;8.75;;;;;;;6.05;100.00;100366.94;4948324;28;20055;-80
2023/03/06 01:40:51;;;;;;;16.77;6.78;;;;;;;6.12;100.00;100358.78;4943616;28;20051;-80
2023/03/06 01:43:27;;;;;;;18.50;7.82;;;;;;;5.98;100.00;100355.88;4942890;28;20051;-78
2023/03/06 01:46:31;;;;;;;17.42;7.93;;;;;;;6.09;100.00;100350.50;4953620;28;20043;-79
2023/03/06 01:49:01;;;;;;;22.65;8.57;;;;;;;6.08;100.00;100352.47;4914116;28;20051;-79
2023/03/06 01:51:53;;;;;;;18.25;8.35;;;;;;;5.82;100.00;100340.75;4952499;28;20054;-80
2023/03/06 01:54:27;;;;;;;22.63;10.25;;;;;;;5.98;100.00;100352.34;4902162;28;20066;-79
2023/03/06 01:57:04;;;;;;;25.73;10.70;;;;;;;5.97;100.00;100348.00;4933357;28;20051;-80
2023/03/06 01:59:34;;;;;;;20.65;8.32;;;;;;;5.85;100.00;100343.56;4935058;28;20050;-77
2023/03/06 02:02:02;;;;;;;20.48;9.32;;;;;;;5.96;100.00;100343.66;4951044;28;20062;-78
2023/03/06 02:04:29;;;;;;;10.40;3.92;;;;;;;5.88;100.00;100340.06;4953370;28;20336;-79
2023/03/06 02:07:00;;;;;;;7.93;3.33;;;;;;;5.74;100.00;100352.81;4952384;28;20058;-77
2023/03/06 02:09:29;;;;;;;19.83;9.15;;;;;;;5.86;100.00;100341.59;4951853;28;20059;-79
2023/03/06 02:11:55;;;;;;;28.15;11.23;;;;;;;5.92;100.00;100335.41;4951140;28;20146;-80
2023/03/06 02:14:22;;;;;;;23.92;12.05;;;;;;;5.97;100.00;100337.03;4949241;28;20051;-79
2023/03/06 02:16:50;;;;;;;24.33;10.93;;;;;;;5.84;100.00;100330.97;4953812;29;20523;-78
2023/03/06 02:19:31;;;;;;;19.73;9.90;;;;;;;5.84;100.00;100330.22;4952710;28;20417;-78
2023/03/06 02:21:58;;;;;;;26.63;13.02;;;;;;;5.95;100.00;100325.63;4952747;28;20047;-77
2023/03/06 02:24:38;;;;;;;20.13;10.40;;;;;;;5.89;100.00;100319.69;4951954;29;20401;-80
2023/03/06 02:27:06;;;;;;;20.10;8.80;;;;;;;5.72;100.00;100320.22;4952466;29;20512;-79
2023/03/06 02:29:34;;;;;;;26.40;12.88;;;;;;;5.68;100.00;100316.66;4952385;28;20054;-81
2023/03/06 02:32:00;;;;;;;20.52;8.80;;;;;;;5.63;100.00;100310.72;4952290;29;20057;-79
2023/03/06 02:34:26;;;;;;;27.88;13.30;;;;;;;5.77;100.00;100313.63;4952843;29;20044;-80
2023/03/06 02:37:07;;;;;;;27.92;11.75;;;;;;;5.87;100.00;100311.00;4934463;29;20123;-79
2023/03/06 02:39:45;;;;;;;22.58;11.82;;;;;;;5.74;100.00;100306.13;4952860;29;20051;-78
2023/03/06 02:42:22;;;;;;;27.00;12.50;;;;;;;5.69;100.00;100296.28;4952094;28;20158;-79
2023/03/06 02:44:50;;;;;;;13.73;7.00;;;;;;;5.76;100.00;100304.59;4951267;28;20058;-78
2023/03/06 02:47:16;;;;;;;28.73;14.68;;;;;;;5.82;100.00;100302.31;4949294;29;20051;-79
2023/03/06 02:49:43;;;;;;;11.20;4.50;;;;;;;5.57;100.00;100291.03;4952243;28;20051;-80
2023/03/06 02:52:09;;;;;;;8.40;4.22;;;;;;;5.53;100.00;100289.41;4951453;29;20057;-78
2023/03/06 02:54:36;;;;;;;33.88;15.40;;;;;;;5.58;100.00;100287.13;4951948;29;20055;-79
2023/03/06 02:57:03;;;;;;;20.23;7.18;;;;;;;5.54;100.00;100286.31;4951787;29;20051;-78
2023/03/06 02:59:29;;;;;;;8.23;4.07;;;;;;;5.41;100.00;100283.00;4951698;29;20055;-80
2023/03/06 03:01:56;;;;;;;21.63;9.48;;;;;;;5.47;100.00;100285.41;4950032;28;20553;-82
2023/03/06 03:04:22;;;;;;;22.30;9.45;;;;;;;5.55;100.00;100287.06;4951039;28;20054;-79
2023/03/06 03:06:49;;;;;;;30.10;14.07;;;;;;;5.62;100.00;100281.66;4949834;29;20573;-79
2023/03/06 03:09:15;;;;;;;24.65;10.73;;;;;;;5.43;100.00;100277.94;4951347;28;20054;-74
2023/03/06 03:11:42;;;;;;;23.90;9.20;;;;;;;5.37;100.00;100265.69;4951686;29;20062;-81
2023/03/06 03:14:09;;;;;;;23.23;7.93;;;;;;;5.53;100.00;100267.47;4950795;28;20154;-77
2023/03/06 03:16:35;;;;;;;27.88;12.38;;;;;;;5.58;100.00;100275.34;4934825;29;20048;-79
2023/03/06 03:19:04;;;;;;;28.38;13.48;;;;;;;5.57;100.00;100263.56;4951124;29;20059;-79
2023/03/06 03:21:31;;;;;;;26.83;12.50;;;;;;;5.56;100.00;100270.25;4950952;29;20059;-78
2023/03/06 03:23:57;;;;;;;28.63;12.75;;;;;;;5.82;100.00;100264.69;4951219;29;20130;-79
2023/03/06 03:26:24;;;;;;;24.95;12.07;;;;;;;5.63;100.00;100256.59;4947299;28;20500;-79
2023/03/06 03:28:50;;;;;;;24.05;10.55;;;;;;;5.37;100.00;100259.44;4949956;29;20066;-79
2023/03/06 03:31:17;;;;;;;27.65;12.90;;;;;;;5.65;100.00;100268.00;4951464;29;20063;-78
2023/03/06 03:33:43;;;;;;;29.75;12.02;;;;;;;5.68;100.00;100269.19;4950343;29;20047;-78
2023/03/06 03:36:10;;;;;;;26.17;10.65;;;;;;;5.54;100.00;100263.56;4950909;28;20059;-79
2023/03/06 03:38:37;;;;;;;24.17;9.48;;;;;;;5.38;100.00;100255.53;4952000;29;20051;-80
2023/03/06 03:41:03;;;;;;;28.45;12.60;;;;;;;5.77;100.00;100261.47;4950072;28;20065;-79
2023/03/06 03:43:30;;;;;;;26.60;12.00;;;;;;;5.58;100.00;100267.91;4951031;29;20146;-78
2023/03/06 03:45:57;;;;;;;28.20;13.23;;;;;;;5.68;100.00;100252.72;4950912;28;20070;-78
2023/03/06 03:48:23;;;;;;;23.83;11.43;;;;;;;5.70;100.00;100266.88;4950737;28;20146;-81
2023/03/06 03:50:50;;;;;;;5.03;2.97;;;;;;;5.73;100.00;100260.66;4951101;29;20081;-78
2023/03/06 03:53:16;;;;;;;22.48;8.48;;;;;;;5.67;100.00;100260.16;4950568;29;20664;-80
2023/03/06 03:55:46;;;;;;;22.52;9.95;;;;;;;5.75;100.00;100261.03;4950856;29;20486;-77
2023/03/06 03:58:12;;;;;;;17.45;7.07;;;;;;;5.71;100.00;100263.75;4950788;28;20061;-80
2023/03/06 04:00:39;;;;;;;11.15;3.97;;;;;;;5.52;100.00;100260.38;4933418;29;20055;-78
2023/03/06 04:03:05;;;;;;;10.20;4.55;;;;;;;5.52;100.00;100252.94;4950938;29;20059;-79
2023/03/06 04:05:32;;;;;;;6.03;2.88;;;;;;;5.43;100.00;100258.72;4950418;29;20526;-78
2023/03/06 04:08:01;;;;;;;21.42;10.18;;;;;;;5.63;100.00;100251.09;4950481;29;20506;-78
2023/03/06 04:10:28;;;;;;;20.67;8.30;;;;;;;5.53;100.00;100251.00;4951493;28;20510;-80
2023/03/06 04:12:55;;;;;;;20.17;9.15;;;;;;;5.58;100.00;100245.97;4951347;29;20055;-79
2023/03/06 04:15:21;;;;;;;3.20;2.33;;;;;;;5.50;100.00;100238.03;4933918;29;20070;-79
2023/03/06 04:17:48;;;;;;;19.52;8.88;;;;;;;5.60;100.00;100232.66;4951008;29;20054;-78
2023/03/06 04:20:14;;;;;;;8.43;3.65;;;;;;;5.47;100.00;100228.59;4952977;28;20047;-79
2023/03/06 04:22:41;;;;;;;22.23;9.13;;;;;;;5.58;100.00;100226.75;4948978;29;20062;-77
2023/03/06 04:25:08;;;;;;;6.68;2.88;;;;;;;5.55;100.00;100230.25;4950311;28;20061;-82
2023/03/06 04:27:34;;;;;;;6.72;3.13;;;;;;;5.35;100.00;100223.34;4950711;29;20146;-79
2023/03/06 04:30:01;;;;;;;17.90;7.55;;;;;;;5.31;100.00;100220.56;4951061;29;20410;-78
2023/03/06 04:32:27;;;;;;;17.42;6.50;;;;;;;5.23;100.00;100221.63;4949754;29;20525;-80
2023/03/06 04:34:54;;;;;;;17.65;6.50;;;;;;;5.39;100.00;100213.19;4950691;29;20098;-78
2023/03/06 04:37:23;;;;;;;10.40;5.68;;;;;;;5.33;100.00;100214.69;4951247;28;20051;-78
2023/03/06 04:39:50;;;;;;;10.32;3.97;;;;;;;5.29;100.00;100216.59;4948280;29;20058;-79
2023/03/06 04:42:17;;;;;;;17.17;6.90;;;;;;;5.27;100.00;100210.72;4950054;29;20069;-78
2023/03/06 04:44:44;;;;;;;16.98;6.78;;;;;;;5.24;100.00;100201.25;4951165;29;20065;-80
2023/03/06 04:47:11;;;;;;;18.10;7.82;;;;;;;5.16;100.00;100205.09;4950761;29;20497;-79
2023/03/06 04:49:38;;;;;;;2.92;1.67;;;;;;;4.91;100.00;100197.72;4950656;29;20055;-78
2023/03/06 04:52:05;;;;;;;15.02;6.50;;;;;;;5.11;100.00;100191.72;4949670;29;20047;-80
2023/03/06 04:54:31;;;;;;;19.33;7.15;;;;;;;5.07;100.00;100201.84;4949943;29;20051;-77
2023/03/06 04:56:58;;;;;;;17.05;7.18;;;;;;;4.95;100.00;100190.31;4950730;29;20051;-78
2023/03/06 04:59:24;;;;;;;14.85;6.40;;;;;;;4.91;100.00;100182.06;4949726;28;20054;-79
2023/03/06 05:01:51;;;;;;;19.35;7.60;;;;;;;4.92;100.00;100186.38;4948877;28;20151;-77
2023/03/06 05:04:17;;;;;;;18.05;7.13;;;;;;;4.89;100.00;100186.31;4950065;28;20538;-81
2023/03/06 05:06:44;;;;;;;21.27;8.55;;;;;;;4.96;100.00;100186.41;4949214;29;20122;-81
2023/03/06 05:09:10;;;;;;;7.07;2.58;;;;;;;4.84;100.00;100183.91;4950552;29;20058;-78
2023/03/06 05:11:37;;;;;;;22.48;8.20;;;;;;;4.95;100.00;100182.09;4949230;29;20520;-80
2023/03/06 05:14:03;;;;;;;21.65;8.55;;;;;;;4.92;100.00;100186.38;4949243;28;20051;-77
2023/03/06 05:16:30;;;;;;;22.25;9.00;;;;;;;4.90;100.00;100183.22;4932847;29;20527;-79
2023/03/06 05:18:56;;;;;;;23.80;9.00;;;;;;;4.89;100.00;100195.34;4949692;28;20044;-79
2023/03/06 05:21:23;;;;;;;22.50;9.57;;;;;;;4.89;100.00;100178.91;4949142;29;20047;-77
2023/03/06 05:23:49;;;;;;;23.25;9.65;;;;;;;4.82;100.00;100184.28;4949941;28;20047;-77
2023/03/06 05:26:16;;;;;;;12.45;4.72;;;;;;;4.72;100.00;100171.22;4948209;29;20522;-78
2023/03/06 05:28:42;;;;;;;19.05;8.52;;;;;;;4.79;100.00;100178.75;4935533;28;20059;-79
2023/03/06 05:31:09;;;;;;;11.52;5.05;;;;;;;4.59;100.00;100185.53;4948839;28;20094;-76
2023/03/06 05:33:36;;;;;;;9.25;2.95;;;;;;;4.69;100.00;100204.84;4953492;28;20055;-79
2023/03/06 05:36:03;;;;;;;7.80;4.55;;;;;;;4.59;100.00;100193.75;4954898;28;20055;-78
2023/03/06 05:38:31;;;;;;;19.55;9.05;;;;;;;4.69;100.00;100191.16;4954911;28;20498;-79
2023/03/06 05:40:57;;;;;;;11.45;4.28;;;;;;;4.54;100.00;100185.84;4953171;28;20059;-79
2023/03/06 05:43:24;;;;;;;7.63;3.67;;;;;;;4.67;100.00;100182.53;4954344;28;20054;-76
2023/03/06 05:45:51;;;;;;;18.27;7.05;;;;;;;4.52;100.00;100179.97;4952465;28;20055;-78
2023/03/06 05:48:18;;;;;;;20.17;8.35;;;;;;;4.63;100.00;100184.41;4960452;28;20051;-79
2023/03/06 05:50:44;;;;;;;13.85;5.90;;;;;;;4.68;100.00;100184.09;4959720;28;20059;-79
2023/03/06 05:53:11;;;;;;;15.52;4.75;;;;;;;4.90;100.00;100188.69;4960370;28;20051;-80
2023/03/06 05:55:38;;;;;;;21.55;10.35;;;;;;;4.72;100.00;100178.66;4958368;28;20062;-77
2023/03/06 05:58:04;;;;;;;20.20;9.05;;;;;;;4.87;100.00;100175.72;4968510;28;20073;-79
2023/03/06 06:00:30;;;;;;;13.63;6.35;;;;;;;4.78;100.00;100174.44;4954160;28;20051;-78
2023/03/06 06:02:59;;;;;;;12.35;5.18;;;;;;;4.72;100.00;100176.72;4959633;28;20077;-78
2023/03/06 06:05:26;;;;;;;12.07;7.72;;;;;;;4.85;100.00;100172.59;4956833;28;20049;-76
2023/03/06 06:07:52;;;;;;;11.57;4.85;;;;;;;4.70;100.00;100170.03;4956408;28;20504;-77
2023/03/06 06:10:19;;;;;;;19.48;8.00;;;;;;;4.84;100.00;100178.44;4953096;28;20061;-77
2023/03/06 06:12:45;;;;;;;27.63;11.43;;;;;;;4.87;100.00;100167.50;4965355;28;20615;-81
2023/03/06 06:15:14;;;;;;;16.52;6.32;;;;;;;4.88;100.00;100163.63;4963969;28;20659;-83
2023/03/06 06:17:40;;;;;;;5.20;3.30;;;;;;;5.10;100.00;100168.19;4952821;29;20051;-79
2023/03/06 06:20:07;;;;;;;3.83;2.13;;;;;;;4.98;100.00;100165.72;4952059;29;20194;-79
2023/03/06 06:22:36;;;;;;;22.75;8.57;;;;;;;4.90;100.00;100166.75;4963365;28;20051;-79
2023/03/06 06:25:04;;;;;;;12.02;5.65;;;;;;;4.86;100.00;100160.44;4964508;28;20143;-78
2023/03/06 06:27:31;;;;;;;16.50;6.60;;;;;;;5.01;100.00;100169.66;4961515;28;20059;-77
2023/03/06 06:29:57;;;;;;;23.50;10.32;;;;;;;4.87;100.00;100164.00;4958728;28;20093;-81
2023/03/06 06:32:24;;;;;;;13.35;5.20;;;;;;;4.94;100.00;100170.38;4961030;28;20047;-79
2023/03/06 06:34:50;;;;;;;14.13;6.22;;;;;;;5.05;100.00;100159.50;4956780;28;20537;-79
2023/03/06 06:37:17;;;;;;;18.80;8.30;;;;;;;4.82;100.00;100158.81;4961635;28;20548;-79
2023/03/06 06:39:43;;;;;;;13.80;5.38;;;;;;;5.01;100.00;100164.16;4952765;28;20058;-80
2023/03/06 06:42:10;;;;;;;28.92;12.43;;;;;;;4.75;100.00;100161.47;4953955;28;20077;-79
2023/03/06 06:44:57;;;;;;;30.48;13.13;;;;;;;4.79;100.00;100154.88;4956770;28;20126;-78
2023/03/06 06:47:23;;;;;;;26.88;11.52;;;;;;;5.27;100.00;100162.13;4949075;28;20050;-79
2023/03/06 06:49:52;;;;;;;21.15;7.32;;;;;;;5.03;100.00;100154.41;4960448;28;20055;-79
2023/03/06 06:52:19;;;;;;;11.98;4.40;;;;;;;4.97;100.00;100157.84;4957188;28;20059;-79
2023/03/06 06:54:45;;;;;;;11.27;6.28;;;;;;;5.02;100.00;100168.47;4961569;28;20061;-79
2023/03/06 06:57:12;;;;;;;7.35;4.35;;;;;;;5.12;100.00;100171.38;4961872;28;20051;-80
2023/03/06 06:59:39;;;;;;;27.50;10.07;;;;;;;5.09;100.00;100166.63;4952452;28;20446;-79
2023/03/06 07:02:06;;;;;;;20.20;9.57;;;;;;;5.21;100.00;100158.16;4957245;28;20166;-78
2023/03/06 07:04:32;;;;;;;32.40;11.88;;;;;;;5.24;100.00;100157.38;4959653;28;20140;-79
2023/03/06 07:06:59;;;;;;;52.33;22.77;;;;;;;5.35;100.00;100163.81;4964851;28;20150;-82
2023/03/06 07:09:26;;;;;;;41.67;18.95;;;;;;;4.88;100.00;100155.41;4957760;28;20082;-77
2023/03/06 07:11:53;;;;;;;37.22;15.75;;;;;;;5.10;100.00;100162.72;4962020;28;20051;-80
2023/03/06 07:14:19;;;;;;;28.65;12.20;;;;;;;5.23;100.00;100165.97;4955227;28;20057;-78
2023/03/06 07:16:46;;;;;;;47.85;18.27;;;;;;;5.23;100.00;100165.97;4955756;28;20051;-80
2023/03/06 07:19:12;;;;;;;51.88;22.48;;;;;;;4.94;100.00;100169.56;4957684;28;20085;-79
2023/03/06 07:21:39;;;;;;;39.03;16.02;;;;;;;5.15;100.00;100169.81;4960012;28;20043;-79
2023/03/06 07:24:06;;;;;;;19.63;7.00;;;;;;;5.18;100.00;100164.38;4957565;28;20097;-78
2023/03/06 07:26:33;;;;;;;17.67;9.60;;;;;;;5.26;100.00;100160.56;4954175;28;20043;-78
2023/03/06 07:29:01;;;;;;;42.00;17.40;;;;;;;5.40;100.00;100171.69;4957681;28;20118;-78
2023/03/06 07:31:27;;;;;;;33.17;14.18;;;;;;;5.10;100.00;100168.19;4954592;28;20143;-80
2023/03/06 07:33:54;;;;;;;39.58;17.38;;;;;;;5.07;100.00;100168.16;4957066;28;20571;-80
2023/03/06 07:36:22;;;;;;;54.65;22.80;;;;;;;5.06;100.00;100172.03;4955553;28;20047;-80
2023/03/06 07:38:49;;;;;;;48.45;18.30;;;;;;;5.18;100.00;100172.63;4960620;28;20070;-80
2023/03/06 07:41:17;;;;;;;47.28;21.10;;;;;;;5.24;100.00;100176.56;4951925;28;20047;-78
2023/03/06 07:43:47;;;;;;;38.47;16.70;;;;;;;5.06;100.00;100172.84;4952455;28;20055;-80
2023/03/06 07:46:14;;;;;;;52.63;23.92;;;;;;;5.07;100.00;100174.41;4952484;28;20441;-78
2023/03/06 07:48:41;;;;;;;13.98;7.57;;;;;;;4.93;100.00;100160.53;4961350;28;20111;-81
2023/03/06 07:51:13;;;;;;;30.15;13.00;;;;;;;5.15;100.00;100161.59;4951271;29;20055;-82
2023/03/06 07:53:39;;;;;;;35.38;13.80;;;;;;;5.12;100.00;100170.56;4951130;28;20057;-78
2023/03/06 07:56:07;;;;;;;62.50;29.17;;;;;;;4.77;100.00;100170.91;4949365;28;20518;-81
2023/03/06 07:58:36;;;;;;;43.88;20.23;;;;;;;5.08;100.00;100158.78;4951621;29;20097;-77
2023/03/06 08:01:05;;;;;;;41.53;17.40;;;;;;;5.30;100.00;100164.13;4951215;28;20599;-78
2023/03/06 08:03:32;;;;;;;49.42;17.55;;;;;;;5.05;100.00;100163.06;4950308;29;20560;-81
2023/03/06 08:06:13;;;;;;;27.75;10.55;;;;;;;5.20;100.00;100167.53;4949400;29;20050;-76
2023/03/06 08:08:42;;;;;;;16.58;8.15;;;;;;;5.31;100.00;100157.47;4951619;28;20055;-79
2023/03/06 08:11:11;;;;;;;9.98;6.32;;;;;;;5.53;100.00;100165.94;4938011;28;20055;-78
2023/03/06 08:13:38;;;;;;;34.03;16.25;;;;;;;5.34;100.00;100159.44;4954863;28;20106;-80
2023/03/06 08:16:05;;;;;;;46.20;18.98;;;;;;;5.19;100.00;100171.44;4953019;28;20055;-76
2023/03/06 08:18:32;;;;;;;23.50;9.68;;;;;;;5.35;100.00;100152.81;4960333;28;20066;-80
2023/03/06 08:21:10;;;;;;;39.45;15.30;;;;;;;5.27;100.00;100156.63;4951513;28;20055;-81
2023/03/06 08:23:37;;;;;;;25.75;10.95;;;;;;;5.35;100.00;100152.81;4965274;28;20059;-80
2023/03/06 08:26:16;;;;;;;50.33;24.55;;;;;;;5.34;100.00;100161.44;4942032;28;20047;-81
2023/03/06 08:28:43;;;;;;;23.17;11.05;;;;;;;5.38;100.00;100171.28;4966104;28;20055;-81
2023/03/06 08:31:31;;;;;;;18.90;9.02;;;;;;;5.31;100.00;100162.94;4961850;28;20074;-82
2023/03/06 08:34:00;;;;;;;29.23;13.57;;;;;;;5.33;100.00;100168.84;4963593;28;20106;-80
2023/03/06 08:36:27;;;;;;;24.13;12.10;;;;;;;5.08;100.00;100175.22;4958251;28;20121;-82
2023/03/06 08:38:54;;;;;;;35.50;15.98;;;;;;;4.82;100.00;100178.81;4967914;28;20070;-81
2023/03/06 08:41:21;;;;;;;26.27;9.80;;;;;;;5.03;100.00;100179.06;4960202;28;20047;-81
2023/03/06 08:43:48;;;;;;;40.10;15.48;;;;;;;4.97;100.00;100182.53;4954770;28;20118;-82
2023/03/06 08:46:17;;;;;;;36.15;15.18;;;;;;;5.11;100.00;100186.25;4953342;28;20055;-81
2023/03/06 08:48:46;;;;;;;35.55;15.32;;;;;;;5.06;100.00;100181.06;4953811;28;20110;-81
2023/03/06 08:51:14;;;;;;;39.28;17.40;;;;;;;5.31;100.00;100184.88;4958282;28;20062;-80
2023/03/06 08:53:41;;;;;;;52.10;22.25;;;;;;;5.43;100.00;100181.09;4958603;28;20081;-80
2023/03/06 08:56:15;;;;;;;48.97;20.42;;;;;;;5.35;100.00;100183.00;4961897;28;20057;-81
2023/03/06 08:58:42;;;;;;;47.45;20.33;;;;;;;5.38;100.00;100179.50;4964787;28;20505;-78
2023/03/06 09:01:20;;;;;;;21.50;8.95;;;;;;;5.06;100.00;100180.28;4958726;28;20050;-82
2023/03/06 09:03:47;;;;;;;44.97;19.60;;;;;;;5.31;100.00;100184.88;4958992;28;20137;-78
2023/03/06 09:06:14;;;;;;;30.92;15.32;;;;;;;5.23;100.00;100179.69;4951593;28;20047;-79
2023/03/06 09:08:42;;;;;;;31.05;12.95;;;;;;;5.31;100.00;100173.91;4952092;28;20106;-83
2023/03/06 09:11:11;;;;;;;45.65;18.83;;;;;;;5.43;100.00;100173.66;4954289;28;20498;-83
2023/03/06 09:13:38;;;;;;;21.88;10.57;;;;;;;5.81;100.00;100171.69;4958633;28;20059;-83
2023/03/06 09:16:06;;;;;;;39.70;17.38;;;;;;;5.97;100.00;100167.56;4955704;28;20071;-81
2023/03/06 09:18:32;;;;;;;29.73;13.63;;;;;;;5.86;100.00;100172.16;4956475;28;20055;-79
2023/03/06 09:20:59;;;;;;;22.38;9.52;;;;;;;5.73;100.00;100179.06;4955470;28;20051;-81
2023/03/06 09:23:26;;;;;;;29.20;11.82;;;;;;;5.74;100.00;100177.13;4959377;28;20468;-80
2023/03/06 09:25:54;;;;;;;20.20;8.75;;;;;;;5.72;100.00;100180.25;4963566;28;20146;-80
2023/03/06 09:28:21;;;;;;;22.10;12.52;;;;;;;5.80;100.00;100181.09;4970705;28;20050;-81
2023/03/06 09:30:47;;;;;;;40.08;15.35;;;;;;;6.05;100.00;100179.41;4973659;28;20055;-83
2023/03/06 09:33:15;;;;;;;30.80;14.30;;;;;;;5.83;100.00;100183.09;4969766;28;20106;-83
2023/03/06 09:35:48;;;;;;;24.45;10.65;;;;;;;5.91;100.00;100184.75;4970243;28;20053;-81
2023/03/06 09:38:14;;;;;;;31.92;13.63;;;;;;;5.72;100.00;100183.00;4963972;29;20043;-81
2023/03/06 09:40:56;;;;;;;23.27;9.32;;;;;;;5.57;100.00;100184.00;4943386;28;20051;-80
2023/03/06 09:43:39;;;;;;;28.05;9.90;;;;;;;5.46;100.00;100169.38;4958422;28;20133;-81
2023/03/06 09:46:31;;;;;;;24.02;11.77;;;;;;;5.45;100.00;100176.03;4963308;28;20043;-80
2023/03/06 09:49:09;;;;;;;29.67;13.30;;;;;;;5.60;100.00;100183.25;4955520;28;20059;-79
2023/03/06 09:52:01;;;;;;;19.85;8.43;;;;;;;5.72;100.00;100185.72;4967545;28;20087;-81
2023/03/06 09:54:51;;;;;;;31.38;14.35;;;;;;;5.96;100.00;100184.41;4969372;28;20134;-82
2023/03/06 09:57:34;;;;;;;22.25;8.65;;;;;;;5.83;100.00;100177.59;4956851;28;20787;-81
2023/03/06 10:00:06;;;;;;;21.90;8.40;;;;;;;5.78;100.00;100183.44;4958399;28;20047;-81
2023/03/06 10:02:43;;;;;;;2.90;2.28;;;;;;;5.77;100.00;100179.13;4961353;28;20145;-81
2023/03/06 10:05:20;;;;;;;14.60;5.30;;;;;;;5.80;100.00;100183.84;4971981;28;20043;-80
2023/03/06 10:07:53;;;;;;;23.13;10.45;;;;;;;5.77;100.00;100173.63;4965111;28;20121;-81
2023/03/06 10:10:23;;;;;;;20.70;6.95;;;;;;;5.73;100.00;100170.06;4957987;28;20462;-82
2023/03/06 10:13:02;;;;;;;19.65;7.55;;;;;;;5.73;100.00;100179.06;4953447;28;20073;-79
2023/03/06 10:15:34;;;;;;;19.90;8.88;;;;;;;5.94;100.00;100173.03;4947848;28;20043;-81
2023/03/06 10:18:03;;;;;;;14.90;6.38;;;;;;;5.85;100.00;100178.03;4956798;28;20050;-81
2023/03/06 10:20:40;;;;;;;17.17;6.95;;;;;;;5.70;100.00;100165.31;4952982;28;20459;-81
2023/03/06 10:23:44;;;;;;;19.08;5.57;;;;;;;6.08;100.00;100162.16;4958642;28;20051;-82
2023/03/06 10:26:25;;;;;;;24.08;8.85;;;;;;;5.77;100.00;100171.66;4959755;28;20044;-81
2023/03/06 10:28:58;;;;;;;26.92;10.40;;;;;;;5.97;100.00;100167.56;4958470;28;20058;-81
2023/03/06 10:31:27;;;;;;;16.77;6.15;;;;;;;6.02;100.00;100166.41;4951526;28;20071;-83
2023/03/06 10:33:55;;;;;;;17.15;7.28;;;;;;;6.06;100.00;100168.03;4954175;28;20612;-82
2023/03/06 10:36:26;;;;;;;11.20;4.63;;;;;;;5.95;100.00;100163.63;4955439;28;20043;-81
2023/03/06 10:38:54;;;;;;;11.82;4.88;;;;;;;6.30;100.00;100167.44;4956257;28;20055;-81
2023/03/06 10:41:30;;;;;;;18.70;9.07;;;;;;;6.47;100.00;100175.00;4953909;29;20051;-78
2023/03/06 10:43:59;;;;;;;23.00;8.45;;;;;;;6.52;100.00;100171.13;4952975;29;20533;-79
2023/03/06 10:46:33;;;;;;;8.57;4.78;;;;;;;6.27;100.00;100175.63;4953900;29;20497;-79
2023/03/06 10:49:19;;;;;;;6.07;3.30;;;;;;;6.43;100.00;100176.16;4953665;29;20062;-80
2023/03/06 10:52:00;;;;;;;19.30;6.20;;;;;;;6.45;100.00;100177.34;4952618;28;20053;-79
2023/03/06 10:54:29;;;;;;;7.75;3.85;;;;;;;6.49;100.00;100169.13;4955270;28;20078;-78
2023/03/06 10:56:55;;;;;;;5.65;3.80;;;;;;;6.72;100.00;100178.69;4960571;28;20483;-81
2023/03/06 10:59:24;;;;;;;9.68;3.90;;;;;;;6.54;100.00;100177.00;4962012;29;20106;-78
2023/03/06 11:01:56;;;;;;;20.80;6.68;;;;;;;6.59;100.00;100179.41;4972687;28;20438;-80
2023/03/06 11:04:30;;;;;;;12.93;4.80;;;;;;;6.73;100.00;100177.53;4966773;28;20066;-84
2023/03/06 11:07:14;;;;;;;19.63;8.65;;;;;;;6.98;100.00;100172.94;4965721;28;20075;-81
2023/03/06 11:09:57;;;;;;;16.10;5.55;;;;;;;7.02;100.00;100171.00;4967160;28;20043;-83
2023/03/06 11:12:26;;;;;;;10.98;4.82;;;;;;;7.16;100.00;100178.53;4960169;29;20211;-81
2023/03/06 11:15:05;;;;;;;15.98;6.13;;;;;;;7.39;100.00;100174.28;4953231;29;20093;-81
2023/03/06 11:17:36;;;;;;;13.77;5.68;;;;;;;7.67;100.00;100176.31;4950041;29;20043;-81
2023/03/06 11:20:24;;;;;;;16.85;5.97;;;;;;;8.00;100.00;100178.69;4951234;29;20051;-82
2023/03/06 11:22:55;;;;;;;17.55;6.97;;;;;;;8.13;100.00;100179.91;4953452;28;20051;-84